Aughwick, Pennsylvania
Current Conditions -  °F | °C
As of 6:13 PM on Wednesday 26 Nov 2014 (Local Time) from KAOO Reporting Station
Haze Haze  
Wind Chill: 29°   Ceiling: 2700
Heat Index: 29°   Visibility: 0.75mi
Dew Point: 29°   Wind: 0mph
Humidity: 100%   Direction: NA
Pressure: 29.95"   Gusts: NA
Location:  40.4281°N, 77.8329°W
Report Text: KAOO 262313Z AUTO 00000KT 3/4SM BR FEW010 BKN027 OVC110 M02/M02 A2995 RMK AO2 SNE08 P0000 T10171017
Loading
Personal Weather Stations






























Interactive Weather Map New forecast layout! Learn more

10-Day Weather Forecast

Advertisements
Track Severe Weather on mobile